Riverside, California
Current Conditions -  °F | °C
As of 3:53 PM on Sunday 23 Nov 2014 (Local Time) from KRAL Reporting Station
Scattered Clouds Scattered Clouds  
Wind Chill: 73°   Ceiling: Unl
Heat Index: 73°   Visibility: 10mi
Dew Point:   Wind: 8mph
Humidity: 6%   Direction: 10°N
Pressure: 30.09"   Gusts: 18mph
Location:  33.98°N, 117.37°W
Report Text: KRAL 232353Z 01007G16KT 330V060 10SM SCT200 23/M18 A3009 RMK AO2 SLP179 T02281178 10244 20217 53004
Loading
Personal Weather Stations






























Interactive Weather Map New forecast layout! Learn more

10-Day Weather Forecast

Advertisements
Track Severe Weather on mobile